sensor_id;sensor_type;location;lat;lon;timestamp;temperature;humidity
16102;DHT22;56411;52.964;10.540;2023-05-21T00:00:07;11.80;99.90
16102;DHT22;56411;52.964;10.540;2023-05-21T00:02:36;11.70;99.90
16102;DHT22;56411;52.964;10.540;2023-05-21T00:05:04;11.70;99.90
16102;DHT22;56411;52.964;10.540;2023-05-21T00:07:31;11.70;99.90
16102;DHT22;56411;52.964;10.540;2023-05-21T00:09:58;11.80;99.90
16102;DHT22;56411;52.964;10.540;2023-05-21T00:12:25;11.90;99.90
16102;DHT22;56411;52.964;10.540;2023-05-21T00:14:54;11.90;99.90
16102;DHT22;56411;52.964;10.540;2023-05-21T00:17:21;11.90;99.90
16102;DHT22;56411;52.964;10.540;2023-05-21T00:19:48;11.90;99.90
16102;DHT22;56411;52.964;10.540;2023-05-21T00:22:16;11.90;99.90
16102;DHT22;56411;52.964;10.540;2023-05-21T00:24:43;12.00;99.90
16102;DHT22;56411;52.964;10.540;2023-05-21T00:27:11;12.00;99.90
16102;DHT22;56411;52.964;10.540;2023-05-21T00:29:38;12.00;99.90
16102;DHT22;56411;52.964;10.540;2023-05-21T00:32:07;12.00;99.90
16102;DHT22;56411;52.964;10.540;2023-05-21T00:34:35;12.00;99.90
16102;DHT22;56411;52.964;10.540;2023-05-21T00:37:03;12.00;99.90
16102;DHT22;56411;52.964;10.540;2023-05-21T00:39:30;12.00;99.90
16102;DHT22;56411;52.964;10.540;2023-05-21T00:41:57;12.00;99.90
16102;DHT22;56411;52.964;10.540;2023-05-21T00:44:24;12.00;99.90
16102;DHT22;56411;52.964;10.540;2023-05-21T00:46:52;12.00;99.90
16102;DHT22;56411;52.964;10.540;2023-05-21T00:49:21;12.00;99.90
16102;DHT22;56411;52.964;10.540;2023-05-21T00:51:49;12.00;99.90
16102;DHT22;56411;52.964;10.540;2023-05-21T00:54:16;12.00;99.90
16102;DHT22;56411;52.964;10.540;2023-05-21T00:56:45;11.90;99.90
16102;DHT22;56411;52.964;10.540;2023-05-21T00:59:14;11.90;99.90
16102;DHT22;56411;52.964;10.540;2023-05-21T01:01:42;11.80;99.90
16102;DHT22;56411;52.964;10.540;2023-05-21T01:04:10;11.80;99.90
16102;DHT22;56411;52.964;10.540;2023-05-21T01:06:39;11.80;99.90
16102;DHT22;56411;52.964;10.540;2023-05-21T01:09:07;11.70;99.90
16102;DHT22;56411;52.964;10.540;2023-05-21T01:11:38;11.60;99.90
16102;DHT22;56411;52.964;10.540;2023-05-21T01:14:06;11.60;99.90
16102;DHT22;56411;52.964;10.540;2023-05-21T01:16:36;11.50;99.90
16102;DHT22;56411;52.964;10.540;2023-05-21T01:19:04;11.50;99.90
16102;DHT22;56411;52.964;10.540;2023-05-21T01:21:36;11.40;99.90
16102;DHT22;56411;52.964;10.540;2023-05-21T01:24:08;11.30;99.90
16102;DHT22;56411;52.964;10.540;2023-05-21T01:26:35;11.30;99.90
16102;DHT22;56411;52.964;10.540;2023-05-21T01:29:03;11.20;99.90
16102;DHT22;56411;52.964;10.540;2023-05-21T01:31:37;11.20;99.90
16102;DHT22;56411;52.964;10.540;2023-05-21T01:34:10;11.10;99.90
16102;DHT22;56411;52.964;10.540;2023-05-21T01:36:41;11.10;99.90
16102;DHT22;56411;52.964;10.540;2023-05-21T01:39:14;11.10;99.90
16102;DHT22;56411;52.964;10.540;2023-05-21T01:41:44;11.00;99.90
16102;DHT22;56411;52.964;10.540;2023-05-21T01:44:13;11.00;99.90
16102;DHT22;56411;52.964;10.540;2023-05-21T01:46:42;10.90;99.90
16102;DHT22;56411;52.964;10.540;2023-05-21T01:49:11;10.90;99.90
16102;DHT22;56411;52.964;10.540;2023-05-21T01:51:38;10.90;99.90
16102;DHT22;56411;52.964;10.540;2023-05-21T01:54:06;10.80;99.90
16102;DHT22;56411;52.964;10.540;2023-05-21T01:56:34;10.80;99.90
16102;DHT22;56411;52.964;10.540;2023-05-21T01:59:01;10.80;99.90
16102;DHT22;56411;52.964;10.540;2023-05-21T02:01:28;10.70;99.90
16102;DHT22;56411;52.964;10.540;2023-05-21T02:03:55;10.70;99.90
16102;DHT22;56411;52.964;10.540;2023-05-21T02:06:22;10.70;99.90
16102;DHT22;56411;52.964;10.540;2023-05-21T02:08:49;10.70;99.90
16102;DHT22;56411;52.964;10.540;2023-05-21T02:11:17;10.60;99.90
16102;DHT22;56411;52.964;10.540;2023-05-21T02:13:45;10.60;99.90
16102;DHT22;56411;52.964;10.540;2023-05-21T02:16:13;10.60;99.90
16102;DHT22;56411;52.964;10.540;2023-05-21T02:18:40;10.60;99.90
16102;DHT22;56411;52.964;10.540;2023-05-21T02:21:08;10.60;99.90
16102;DHT22;56411;52.964;10.540;2023-05-21T02:23:36;10.60;99.90
16102;DHT22;56411;52.964;10.540;2023-05-21T02:26:03;10.60;99.90
16102;DHT22;56411;52.964;10.540;2023-05-21T02:28:30;10.50;99.90
16102;DHT22;56411;52.964;10.540;2023-05-21T02:30:59;10.50;99.90
16102;DHT22;56411;52.964;10.540;2023-05-21T02:33:26;10.50;99.90
16102;DHT22;56411;52.964;10.540;2023-05-21T02:35:53;10.50;99.90
16102;DHT22;56411;52.964;10.540;2023-05-21T02:38:20;10.40;99.90
16102;DHT22;56411;52.964;10.540;2023-05-21T02:40:48;10.40;99.90
16102;DHT22;56411;52.964;10.540;2023-05-21T02:43:16;10.40;99.90
16102;DHT22;56411;52.964;10.540;2023-05-21T02:45:45;10.40;99.90
16102;DHT22;56411;52.964;10.540;2023-05-21T02:48:13;10.40;99.90
16102;DHT22;56411;52.964;10.540;2023-05-21T02:50:40;10.40;99.90
16102;DHT22;56411;52.964;10.540;2023-05-21T02:53:07;10.40;99.90
16102;DHT22;56411;52.964;10.540;2023-05-21T02:55:34;10.40;99.90
16102;DHT22;56411;52.964;10.540;2023-05-21T02:58:01;10.40;99.90
16102;DHT22;56411;52.964;10.540;2023-05-21T03:00:28;10.40;99.90
16102;DHT22;56411;52.964;10.540;2023-05-21T03:02:55;10.40;99.90
16102;DHT22;56411;52.964;10.540;2023-05-21T03:05:23;10.40;99.90
16102;DHT22;56411;52.964;10.540;2023-05-21T03:07:50;10.30;99.90
16102;DHT22;56411;52.964;10.540;2023-05-21T03:10:17;10.30;99.90
16102;DHT22;56411;52.964;10.540;2023-05-21T03:12:44;10.30;99.90
16102;DHT22;56411;52.964;10.540;2023-05-21T03:15:11;10.30;99.90
16102;DHT22;56411;52.964;10.540;2023-05-21T03:17:40;10.30;99.90
16102;DHT22;56411;52.964;10.540;2023-05-21T03:20:09;10.30;99.90
16102;DHT22;56411;52.964;10.540;2023-05-21T03:22:43;10.30;99.90
16102;DHT22;56411;52.964;10.540;2023-05-21T03:25:11;10.30;99.90
16102;DHT22;56411;52.964;10.540;2023-05-21T03:27:38;10.30;99.90
16102;DHT22;56411;52.964;10.540;2023-05-21T03:30:06;10.30;99.90
16102;DHT22;56411;52.964;10.540;2023-05-21T03:32:34;10.30;99.90
16102;DHT22;56411;52.964;10.540;2023-05-21T03:35:03;10.30;99.90
16102;DHT22;56411;52.964;10.540;2023-05-21T03:37:31;10.30;99.90
16102;DHT22;56411;52.964;10.540;2023-05-21T03:39:59;10.30;99.90
16102;DHT22;56411;52.964;10.540;2023-05-21T03:42:26;10.30;99.90
16102;DHT22;56411;52.964;10.540;2023-05-21T03:44:53;10.30;99.90
16102;DHT22;56411;52.964;10.540;2023-05-21T03:47:20;10.30;99.90
16102;DHT22;56411;52.964;10.540;2023-05-21T03:49:47;10.30;99.90
16102;DHT22;56411;52.964;10.540;2023-05-21T03:52:14;10.30;99.90
16102;DHT22;56411;52.964;10.540;2023-05-21T03:54:41;10.30;99.90
16102;DHT22;56411;52.964;10.540;2023-05-21T03:57:10;10.30;99.90
16102;DHT22;56411;52.964;10.540;2023-05-21T03:59:37;10.30;99.90
16102;DHT22;56411;52.964;10.540;2023-05-21T04:02:04;10.30;99.90
16102;DHT22;56411;52.964;10.540;2023-05-21T04:04:31;10.30;99.90
16102;DHT22;56411;52.964;10.540;2023-05-21T04:06:59;10.30;99.90
16102;DHT22;56411;52.964;10.540;2023-05-21T04:09:26;10.30;99.90
16102;DHT22;56411;52.964;10.540;2023-05-21T04:11:53;10.40;99.90
16102;DHT22;56411;52.964;10.540;2023-05-21T04:14:22;10.40;99.90
16102;DHT22;56411;52.964;10.540;2023-05-21T04:16:49;10.40;99.90
16102;DHT22;56411;52.964;10.540;2023-05-21T04:19:16;10.40;99.90
16102;DHT22;56411;52.964;10.540;2023-05-21T04:21:43;10.40;99.90
16102;DHT22;56411;52.964;10.540;2023-05-21T04:24:10;10.50;99.90
16102;DHT22;56411;52.964;10.540;2023-05-21T04:26:37;10.50;99.90
16102;DHT22;56411;52.964;10.540;2023-05-21T04:29:07;10.50;99.90
16102;DHT22;56411;52.964;10.540;2023-05-21T04:31:35;10.60;99.90
16102;DHT22;56411;52.964;10.540;2023-05-21T04:34:03;10.60;99.90
16102;DHT22;56411;52.964;10.540;2023-05-21T04:36:30;10.70;99.90
16102;DHT22;56411;52.964;10.540;2023-05-21T04:38:58;10.80;99.90
16102;DHT22;56411;52.964;10.540;2023-05-21T04:41:25;10.90;99.90
16102;DHT22;56411;52.964;10.540;2023-05-21T04:43:53;10.90;99.90
16102;DHT22;56411;52.964;10.540;2023-05-21T04:46:20;11.00;99.90
16102;DHT22;56411;52.964;10.540;2023-05-21T04:48:54;11.10;99.90
16102;DHT22;56411;52.964;10.540;2023-05-21T04:51:21;11.20;99.90
16102;DHT22;56411;52.964;10.540;2023-05-21T04:53:49;11.20;99.90
16102;DHT22;56411;52.964;10.540;2023-05-21T04:56:16;11.30;99.90
16102;DHT22;56411;52.964;10.540;2023-05-21T04:58:44;11.40;99.90
16102;DHT22;56411;52.964;10.540;2023-05-21T05:01:13;11.50;99.90
16102;DHT22;56411;52.964;10.540;2023-05-21T05:03:40;11.60;99.90
16102;DHT22;56411;52.964;10.540;2023-05-21T05:06:08;11.60;99.90
16102;DHT22;56411;52.964;10.540;2023-05-21T05:08:35;11.70;99.90
16102;DHT22;56411;52.964;10.540;2023-05-21T05:11:02;11.70;99.90
16102;DHT22;56411;52.964;10.540;2023-05-21T05:13:29;11.80;99.90
16102;DHT22;56411;52.964;10.540;2023-05-21T05:15:57;11.90;99.90
16102;DHT22;56411;52.964;10.540;2023-05-21T05:18:24;11.90;99.90
16102;DHT22;56411;52.964;10.540;2023-05-21T05:20:52;12.00;99.90
16102;DHT22;56411;52.964;10.540;2023-05-21T05:23:20;12.10;99.90
16102;DHT22;56411;52.964;10.540;2023-05-21T05:25:47;12.10;99.90
16102;DHT22;56411;52.964;10.540;2023-05-21T05:28:14;12.20;99.90
16102;DHT22;56411;52.964;10.540;2023-05-21T05:30:41;12.30;99.90
16102;DHT22;56411;52.964;10.540;2023-05-21T05:33:08;12.30;99.90
16102;DHT22;56411;52.964;10.540;2023-05-21T05:35:36;12.40;99.90
16102;DHT22;56411;52.964;10.540;2023-05-21T05:38:04;12.50;99.90
16102;DHT22;56411;52.964;10.540;2023-05-21T05:40:34;12.60;99.90
16102;DHT22;56411;52.964;10.540;2023-05-21T05:43:01;12.60;99.90
16102;DHT22;56411;52.964;10.540;2023-05-21T05:45:30;12.70;99.90
16102;DHT22;56411;52.964;10.540;2023-05-21T05:47:57;12.80;99.90
16102;DHT22;56411;52.964;10.540;2023-05-21T05:50:24;12.90;99.90
16102;DHT22;56411;52.964;10.540;2023-05-21T05:52:51;12.90;99.90
16102;DHT22;56411;52.964;10.540;2023-05-21T05:55:18;13.00;99.90
16102;DHT22;56411;52.964;10.540;2023-05-21T05:57:47;13.10;99.90
16102;DHT22;56411;52.964;10.540;2023-05-21T06:00:15;13.20;99.90
16102;DHT22;56411;52.964;10.540;2023-05-21T06:02:43;13.30;99.90
16102;DHT22;56411;52.964;10.540;2023-05-21T06:05:10;13.40;99.90
16102;DHT22;56411;52.964;10.540;2023-05-21T06:07:37;13.40;99.90
16102;DHT22;56411;52.964;10.540;2023-05-21T06:10:05;13.50;99.90
16102;DHT22;56411;52.964;10.540;2023-05-21T06:12:32;13.60;99.90
16102;DHT22;56411;52.964;10.540;2023-05-21T06:15:00;13.70;99.90
16102;DHT22;56411;52.964;10.540;2023-05-21T06:17:27;13.80;99.90
16102;DHT22;56411;52.964;10.540;2023-05-21T06:19:55;13.90;99.90
16102;DHT22;56411;52.964;10.540;2023-05-21T06:22:22;13.90;99.90
16102;DHT22;56411;52.964;10.540;2023-05-21T06:24:49;14.00;99.90
16102;DHT22;56411;52.964;10.540;2023-05-21T06:27:16;14.20;99.90
16102;DHT22;56411;52.964;10.540;2023-05-21T06:29:43;14.20;99.90
16102;DHT22;56411;52.964;10.540;2023-05-21T06:32:11;14.30;99.90
16102;DHT22;56411;52.964;10.540;2023-05-21T06:34:38;14.50;99.90
16102;DHT22;56411;52.964;10.540;2023-05-21T06:37:05;14.60;99.90
16102;DHT22;56411;52.964;10.540;2023-05-21T06:39:32;14.70;99.90
16102;DHT22;56411;52.964;10.540;2023-05-21T06:41:59;14.70;99.90
16102;DHT22;56411;52.964;10.540;2023-05-21T06:44:26;14.80;99.90
16102;DHT22;56411;52.964;10.540;2023-05-21T06:46:53;14.90;99.90
16102;DHT22;56411;52.964;10.540;2023-05-21T06:49:22;14.90;99.90
16102;DHT22;56411;52.964;10.540;2023-05-21T06:51:49;15.00;99.90
16102;DHT22;56411;52.964;10.540;2023-05-21T06:54:16;15.00;99.90
16102;DHT22;56411;52.964;10.540;2023-05-21T06:56:43;15.10;99.90
16102;DHT22;56411;52.964;10.540;2023-05-21T06:59:10;15.20;99.90
16102;DHT22;56411;52.964;10.540;2023-05-21T07:01:36;15.30;99.90
16102;DHT22;56411;52.964;10.540;2023-05-21T07:04:07;15.50;99.90
16102;DHT22;56411;52.964;10.540;2023-05-21T07:06:35;15.60;99.90
16102;DHT22;56411;52.964;10.540;2023-05-21T07:09:02;15.80;99.90
16102;DHT22;56411;52.964;10.540;2023-05-21T07:11:30;15.90;99.90
16102;DHT22;56411;52.964;10.540;2023-05-21T07:13:57;16.00;99.90
16102;DHT22;56411;52.964;10.540;2023-05-21T07:16:26;16.20;99.90
16102;DHT22;56411;52.964;10.540;2023-05-21T07:18:53;16.40;99.90
16102;DHT22;56411;52.964;10.540;2023-05-21T07:21:21;16.60;99.90
16102;DHT22;56411;52.964;10.540;2023-05-21T07:23:50;16.80;99.90
16102;DHT22;56411;52.964;10.540;2023-05-21T07:26:17;16.90;99.90
16102;DHT22;56411;52.964;10.540;2023-05-21T07:28:47;17.00;99.90
16102;DHT22;56411;52.964;10.540;2023-05-21T07:31:14;17.20;99.90
16102;DHT22;56411;52.964;10.540;2023-05-21T07:33:41;17.20;99.90
16102;DHT22;56411;52.964;10.540;2023-05-21T07:36:08;17.40;99.90
16102;DHT22;56411;52.964;10.540;2023-05-21T07:38:35;17.60;99.90
16102;DHT22;56411;52.964;10.540;2023-05-21T07:41:04;17.70;99.90
16102;DHT22;56411;52.964;10.540;2023-05-21T07:43:31;17.70;99.90
16102;DHT22;56411;52.964;10.540;2023-05-21T07:45:58;17.70;99.90
16102;DHT22;56411;52.964;10.540;2023-05-21T07:48:24;17.90;99.90
16102;DHT22;56411;52.964;10.540;2023-05-21T07:50:52;18.00;99.90
16102;DHT22;56411;52.964;10.540;2023-05-21T07:53:19;18.20;99.90
16102;DHT22;56411;52.964;10.540;2023-05-21T07:55:46;18.40;99.90
16102;DHT22;56411;52.964;10.540;2023-05-21T07:58:15;18.50;99.90
16102;DHT22;56411;52.964;10.540;2023-05-21T08:00:44;18.70;99.90
16102;DHT22;56411;52.964;10.540;2023-05-21T08:03:13;18.90;99.90
16102;DHT22;56411;52.964;10.540;2023-05-21T08:05:41;19.10;99.90
16102;DHT22;56411;52.964;10.540;2023-05-21T08:08:09;19.40;99.90
16102;DHT22;56411;52.964;10.540;2023-05-21T08:10:37;19.50;99.90
16102;DHT22;56411;52.964;10.540;2023-05-21T08:13:04;19.60;99.90
16102;DHT22;56411;52.964;10.540;2023-05-21T08:15:33;19.70;99.90
16102;DHT22;56411;52.964;10.540;2023-05-21T08:18:00;19.80;99.90
16102;DHT22;56411;52.964;10.540;2023-05-21T08:20:27;19.80;99.90
16102;DHT22;56411;52.964;10.540;2023-05-21T08:22:55;19.80;99.90
16102;DHT22;56411;52.964;10.540;2023-05-21T08:25:22;19.70;99.90
16102;DHT22;56411;52.964;10.540;2023-05-21T08:27:49;19.90;99.90
16102;DHT22;56411;52.964;10.540;2023-05-21T08:30:17;20.10;99.90
16102;DHT22;56411;52.964;10.540;2023-05-21T08:32:46;20.00;99.90
16102;DHT22;56411;52.964;10.540;2023-05-21T08:35:13;20.10;99.90
16102;DHT22;56411;52.964;10.540;2023-05-21T08:37:40;20.20;99.90
16102;DHT22;56411;52.964;10.540;2023-05-21T08:40:09;20.10;99.90
16102;DHT22;56411;52.964;10.540;2023-05-21T08:42:41;20.30;99.90
16102;DHT22;56411;52.964;10.540;2023-05-21T08:45:10;20.30;99.90
16102;DHT22;56411;52.964;10.540;2023-05-21T08:47:40;20.30;99.90
16102;DHT22;56411;52.964;10.540;2023-05-21T08:50:11;20.40;99.90
16102;DHT22;56411;52.964;10.540;2023-05-21T08:52:38;20.40;99.90
16102;DHT22;56411;52.964;10.540;2023-05-21T08:55:06;20.50;99.90
16102;DHT22;56411;52.964;10.540;2023-05-21T08:57:33;20.70;99.90
16102;DHT22;56411;52.964;10.540;2023-05-21T09:00:01;20.60;99.90
16102;DHT22;56411;52.964;10.540;2023-05-21T09:02:32;20.50;99.90
16102;DHT22;56411;52.964;10.540;2023-05-21T09:05:00;20.50;99.90
16102;DHT22;56411;52.964;10.540;2023-05-21T09:07:30;20.60;99.90
16102;DHT22;56411;52.964;10.540;2023-05-21T09:10:02;20.70;99.90
16102;DHT22;56411;52.964;10.540;2023-05-21T09:12:31;20.60;99.90
16102;DHT22;56411;52.964;10.540;2023-05-21T09:14:59;20.60;99.90
16102;DHT22;56411;52.964;10.540;2023-05-21T09:17:26;20.60;99.90
16102;DHT22;56411;52.964;10.540;2023-05-21T09:20:07;20.60;99.90
16102;DHT22;56411;52.964;10.540;2023-05-21T09:22:41;20.70;99.90
16102;DHT22;56411;52.964;10.540;2023-05-21T09:25:09;20.80;99.90
16102;DHT22;56411;52.964;10.540;2023-05-21T09:27:37;21.00;99.90
16102;DHT22;56411;52.964;10.540;2023-05-21T09:30:08;21.10;99.90
16102;DHT22;56411;52.964;10.540;2023-05-21T09:32:36;21.20;99.90
16102;DHT22;56411;52.964;10.540;2023-05-21T09:35:08;21.20;99.90
16102;DHT22;56411;52.964;10.540;2023-05-21T09:37:40;21.20;99.90
16102;DHT22;56411;52.964;10.540;2023-05-21T09:40:12;21.30;99.90
16102;DHT22;56411;52.964;10.540;2023-05-21T09:42:40;21.30;99.90
16102;DHT22;56411;52.964;10.540;2023-05-21T09:45:08;21.40;99.90
16102;DHT22;56411;52.964;10.540;2023-05-21T09:47:40;21.40;99.90
16102;DHT22;56411;52.964;10.540;2023-05-21T09:50:09;21.30;99.90
16102;DHT22;56411;52.964;10.540;2023-05-21T09:52:36;21.40;99.90
16102;DHT22;56411;52.964;10.540;2023-05-21T09:55:06;21.50;99.90
16102;DHT22;56411;52.964;10.540;2023-05-21T09:57:39;21.60;99.90
16102;DHT22;56411;52.964;10.540;2023-05-21T10:00:08;21.60;99.90
16102;DHT22;56411;52.964;10.540;2023-05-21T10:02:41;21.60;99.90
16102;DHT22;56411;52.964;10.540;2023-05-21T10:05:11;21.70;99.90
16102;DHT22;56411;52.964;10.540;2023-05-21T10:07:41;21.80;99.90
16102;DHT22;56411;52.964;10.540;2023-05-21T10:10:12;22.10;99.90
16102;DHT22;56411;52.964;10.540;2023-05-21T10:12:43;22.20;99.90
16102;DHT22;56411;52.964;10.540;2023-05-21T10:15:13;22.10;99.90
16102;DHT22;56411;52.964;10.540;2023-05-21T10:17:41;22.20;99.90
16102;DHT22;56411;52.964;10.540;2023-05-21T10:20:09;22.40;99.90
16102;DHT22;56411;52.964;10.540;2023-05-21T10:22:36;22.50;99.90
16102;DHT22;56411;52.964;10.540;2023-05-21T10:25:05;22.60;99.90
16102;DHT22;56411;52.964;10.540;2023-05-21T10:27:35;22.70;99.90
16102;DHT22;56411;52.964;10.540;2023-05-21T10:30:03;22.80;99.90
16102;DHT22;56411;52.964;10.540;2023-05-21T10:32:32;22.80;99.90
16102;DHT22;56411;52.964;10.540;2023-05-21T10:34:59;23.00;99.90
16102;DHT22;56411;52.964;10.540;2023-05-21T10:37:28;23.40;99.90
16102;DHT22;56411;52.964;10.540;2023-05-21T10:39:55;23.50;99.90
16102;DHT22;56411;52.964;10.540;2023-05-21T10:42:50;23.30;99.90
16102;DHT22;56411;52.964;10.540;2023-05-21T10:45:32;23.50;99.90
16102;DHT22;56411;52.964;10.540;2023-05-21T10:51:19;23.60;99.90
16102;DHT22;56411;52.964;10.540;2023-05-21T10:54:03;23.70;99.90
16102;DHT22;56411;52.964;10.540;2023-05-21T10:56:38;24.00;99.90
16102;DHT22;56411;52.964;10.540;2023-05-21T10:59:18;24.30;99.90
16102;DHT22;56411;52.964;10.540;2023-05-21T11:01:49;24.60;99.90
16102;DHT22;56411;52.964;10.540;2023-05-21T11:04:21;24.60;99.90
16102;DHT22;56411;52.964;10.540;2023-05-21T11:06:49;24.40;99.90
16102;DHT22;56411;52.964;10.540;2023-05-21T11:09:16;24.40;99.90
16102;DHT22;56411;52.964;10.540;2023-05-21T11:11:44;24.50;99.90
16102;DHT22;56411;52.964;10.540;2023-05-21T11:14:28;24.60;99.90
16102;DHT22;56411;52.964;10.540;2023-05-21T11:16:56;25.10;99.90
16102;DHT22;56411;52.964;10.540;2023-05-21T11:19:33;25.60;99.90
16102;DHT22;56411;52.964;10.540;2023-05-21T11:22:04;25.70;99.90
16102;DHT22;56411;52.964;10.540;2023-05-21T11:24:32;26.00;99.90
16102;DHT22;56411;52.964;10.540;2023-05-21T11:27:02;26.20;99.90
16102;DHT22;56411;52.964;10.540;2023-05-21T11:29:52;26.60;99.90
16102;DHT22;56411;52.964;10.540;2023-05-21T11:32:21;27.10;99.90
16102;DHT22;56411;52.964;10.540;2023-05-21T11:34:49;27.50;99.90
16102;DHT22;56411;52.964;10.540;2023-05-21T11:37:23;27.30;99.90
16102;DHT22;56411;52.964;10.540;2023-05-21T11:39:52;27.60;99.90
16102;DHT22;56411;52.964;10.540;2023-05-21T11:42:30;28.20;99.90
16102;DHT22;56411;52.964;10.540;2023-05-21T11:45:00;28.60;99.90
16102;DHT22;56411;52.964;10.540;2023-05-21T11:47:28;28.60;99.90
16102;DHT22;56411;52.964;10.540;2023-05-21T11:49:58;28.40;99.90
16102;DHT22;56411;52.964;10.540;2023-05-21T11:52:27;28.30;99.90
16102;DHT22;56411;52.964;10.540;2023-05-21T11:54:54;29.10;99.90
16102;DHT22;56411;52.964;10.540;2023-05-21T11:57:24;29.00;99.90
16102;DHT22;56411;52.964;10.540;2023-05-21T11:59:55;29.50;99.90
16102;DHT22;56411;52.964;10.540;2023-05-21T12:02:26;29.40;99.90
16102;DHT22;56411;52.964;10.540;2023-05-21T12:04:54;29.90;99.90
16102;DHT22;56411;52.964;10.540;2023-05-21T12:07:26;30.50;99.90
16102;DHT22;56411;52.964;10.540;2023-05-21T12:09:54;30.50;99.90
16102;DHT22;56411;52.964;10.540;2023-05-21T12:12:25;30.50;99.90
16102;DHT22;56411;52.964;10.540;2023-05-21T12:14:54;30.10;99.90
16102;DHT22;56411;52.964;10.540;2023-05-21T12:17:22;30.30;99.90
16102;DHT22;56411;52.964;10.540;2023-05-21T12:19:52;30.50;99.90
16102;DHT22;56411;52.964;10.540;2023-05-21T12:22:20;30.70;99.90
16102;DHT22;56411;52.964;10.540;2023-05-21T12:24:48;30.60;99.90
16102;DHT22;56411;52.964;10.540;2023-05-21T12:27:15;30.50;99.90
16102;DHT22;56411;52.964;10.540;2023-05-21T12:29:44;30.90;99.90
16102;DHT22;56411;52.964;10.540;2023-05-21T12:32:12;30.40;99.90
16102;DHT22;56411;52.964;10.540;2023-05-21T12:34:40;30.70;99.90
16102;DHT22;56411;52.964;10.540;2023-05-21T12:37:11;31.20;99.90
16102;DHT22;56411;52.964;10.540;2023-05-21T12:39:39;30.80;99.90
16102;DHT22;56411;52.964;10.540;2023-05-21T12:42:07;30.80;99.90
16102;DHT22;56411;52.964;10.540;2023-05-21T12:44:35;30.90;99.90
16102;DHT22;56411;52.964;10.540;2023-05-21T12:47:03;30.80;99.90
16102;DHT22;56411;52.964;10.540;2023-05-21T12:49:35;30.90;99.90
16102;DHT22;56411;52.964;10.540;2023-05-21T12:52:04;30.70;99.90
16102;DHT22;56411;52.964;10.540;2023-05-21T12:54:34;30.80;99.90
16102;DHT22;56411;52.964;10.540;2023-05-21T12:57:06;30.30;99.90
16102;DHT22;56411;52.964;10.540;2023-05-21T12:59:49;30.60;99.90
16102;DHT22;56411;52.964;10.540;2023-05-21T13:02:20;30.80;99.90
16102;DHT22;56411;52.964;10.540;2023-05-21T13:04:49;30.70;99.90
16102;DHT22;56411;52.964;10.540;2023-05-21T13:07:19;30.50;99.90
16102;DHT22;56411;52.964;10.540;2023-05-21T13:09:48;30.50;99.90
16102;DHT22;56411;52.964;10.540;2023-05-21T13:12:17;30.30;99.90
16102;DHT22;56411;52.964;10.540;2023-05-21T13:14:45;29.90;99.90
16102;DHT22;56411;52.964;10.540;2023-05-21T13:17:12;29.80;99.90
16102;DHT22;56411;52.964;10.540;2023-05-21T13:19:39;29.90;99.90
16102;DHT22;56411;52.964;10.540;2023-05-21T13:22:06;30.20;99.90
16102;DHT22;56411;52.964;10.540;2023-05-21T13:24:35;30.50;99.90
16102;DHT22;56411;52.964;10.540;2023-05-21T13:27:03;31.10;99.90
16102;DHT22;56411;52.964;10.540;2023-05-21T13:29:30;31.50;99.90
16102;DHT22;56411;52.964;10.540;2023-05-21T13:31:57;31.80;99.90
16102;DHT22;56411;52.964;10.540;2023-05-21T13:34:24;31.70;99.90
16102;DHT22;56411;52.964;10.540;2023-05-21T13:36:51;31.90;99.90
16102;DHT22;56411;52.964;10.540;2023-05-21T13:39:18;31.90;99.90
16102;DHT22;56411;52.964;10.540;2023-05-21T13:41:51;32.30;99.90
16102;DHT22;56411;52.964;10.540;2023-05-21T13:44:19;32.70;99.90
16102;DHT22;56411;52.964;10.540;2023-05-21T13:46:47;33.10;99.90
16102;DHT22;56411;52.964;10.540;2023-05-21T13:49:14;32.90;99.90
16102;DHT22;56411;52.964;10.540;2023-05-21T13:51:41;32.90;99.90
16102;DHT22;56411;52.964;10.540;2023-05-21T13:54:08;33.30;99.90
16102;DHT22;56411;52.964;10.540;2023-05-21T13:56:35;32.90;99.70
16102;DHT22;56411;52.964;10.540;2023-05-21T13:59:02;32.90;99.30
16102;DHT22;56411;52.964;10.540;2023-05-21T14:01:30;33.00;97.80
16102;DHT22;56411;52.964;10.540;2023-05-21T14:03:57;32.80;98.20
16102;DHT22;56411;52.964;10.540;2023-05-21T14:06:29;33.10;97.30
16102;DHT22;56411;52.964;10.540;2023-05-21T14:08:56;33.20;97.50
16102;DHT22;56411;52.964;10.540;2023-05-21T14:11:24;32.50;97.80
16102;DHT22;56411;52.964;10.540;2023-05-21T14:13:51;33.40;97.50
16102;DHT22;56411;52.964;10.540;2023-05-21T14:16:18;33.70;96.30
16102;DHT22;56411;52.964;10.540;2023-05-21T14:18:48;34.00;95.10
16102;DHT22;56411;52.964;10.540;2023-05-21T14:21:17;33.60;94.80
16102;DHT22;56411;52.964;10.540;2023-05-21T14:23:45;33.10;95.20
16102;DHT22;56411;52.964;10.540;2023-05-21T14:26:13;32.90;96.20
16102;DHT22;56411;52.964;10.540;2023-05-21T14:28:41;32.60;95.70
16102;DHT22;56411;52.964;10.540;2023-05-21T14:31:08;31.70;95.70
16102;DHT22;56411;52.964;10.540;2023-05-21T14:33:36;31.40;96.50
16102;DHT22;56411;52.964;10.540;2023-05-21T14:36:05;31.30;96.30
16102;DHT22;56411;52.964;10.540;2023-05-21T14:38:32;31.50;96.90
16102;DHT22;56411;52.964;10.540;2023-05-21T14:40:59;31.90;96.70
16102;DHT22;56411;52.964;10.540;2023-05-21T14:43:26;32.00;96.70
16102;DHT22;56411;52.964;10.540;2023-05-21T14:45:53;31.90;96.90
16102;DHT22;56411;52.964;10.540;2023-05-21T14:48:20;31.70;96.50
16102;DHT22;56411;52.964;10.540;2023-05-21T14:50:48;31.50;96.10
16102;DHT22;56411;52.964;10.540;2023-05-21T14:53:17;31.90;97.40
16102;DHT22;56411;52.964;10.540;2023-05-21T14:55:45;31.90;97.70
16102;DHT22;56411;52.964;10.540;2023-05-21T14:58:12;32.50;97.70
16102;DHT22;56411;52.964;10.540;2023-05-21T15:00:40;32.80;96.60
16102;DHT22;56411;52.964;10.540;2023-05-21T15:03:07;33.10;96.80
16102;DHT22;56411;52.964;10.540;2023-05-21T15:05:34;32.60;96.00
16102;DHT22;56411;52.964;10.540;2023-05-21T15:08:01;32.30;96.20
16102;DHT22;56411;52.964;10.540;2023-05-21T15:10:31;31.80;96.80
16102;DHT22;56411;52.964;10.540;2023-05-21T15:12:58;31.80;96.40
16102;DHT22;56411;52.964;10.540;2023-05-21T15:15:25;31.70;96.30
16102;DHT22;56411;52.964;10.540;2023-05-21T15:17:53;31.50;96.30
16102;DHT22;56411;52.964;10.540;2023-05-21T15:20:21;31.10;96.60
16102;DHT22;56411;52.964;10.540;2023-05-21T15:22:48;31.20;97.20
16102;DHT22;56411;52.964;10.540;2023-05-21T15:25:15;31.50;96.00